sensor_id;sensor_type;location;lat;lon;timestamp;temperature;humidity
10828;DHT22;5467;59.334;13.512;2022-09-09T00:00:48;11.80;99.90
10828;DHT22;5467;59.334;13.512;2022-09-09T00:03:18;11.70;99.90
10828;DHT22;5467;59.334;13.512;2022-09-09T00:05:51;11.70;99.90
10828;DHT22;5467;59.334;13.512;2022-09-09T00:08:27;11.60;99.90
10828;DHT22;5467;59.334;13.512;2022-09-09T00:10:59;11.60;99.90
10828;DHT22;5467;59.334;13.512;2022-09-09T00:13:33;11.70;99.90
10828;DHT22;5467;59.334;13.512;2022-09-09T00:16:07;11.50;99.90
10828;DHT22;5467;59.334;13.512;2022-09-09T00:18:45;11.50;99.90
10828;DHT22;5467;59.334;13.512;2022-09-09T00:21:14;11.50;99.90
10828;DHT22;5467;59.334;13.512;2022-09-09T00:23:45;11.30;99.90
10828;DHT22;5467;59.334;13.512;2022-09-09T00:26:19;11.30;99.90
10828;DHT22;5467;59.334;13.512;2022-09-09T00:28:52;11.20;99.90
10828;DHT22;5467;59.334;13.512;2022-09-09T00:31:25;11.20;99.90
10828;DHT22;5467;59.334;13.512;2022-09-09T00:33:53;11.20;99.90
10828;DHT22;5467;59.334;13.512;2022-09-09T00:36:24;11.10;99.90
10828;DHT22;5467;59.334;13.512;2022-09-09T00:38:57;11.10;99.90
10828;DHT22;5467;59.334;13.512;2022-09-09T00:41:32;11.10;99.90
10828;DHT22;5467;59.334;13.512;2022-09-09T00:44:13;11.00;99.90
10828;DHT22;5467;59.334;13.512;2022-09-09T00:46:56;11.00;99.90
10828;DHT22;5467;59.334;13.512;2022-09-09T00:49:36;11.00;99.90
10828;DHT22;5467;59.334;13.512;2022-09-09T00:52:17;10.90;99.90
10828;DHT22;5467;59.334;13.512;2022-09-09T00:54:52;11.00;99.90
10828;DHT22;5467;59.334;13.512;2022-09-09T00:57:26;11.00;99.90
10828;DHT22;5467;59.334;13.512;2022-09-09T00:59:59;11.00;99.90
10828;DHT22;5467;59.334;13.512;2022-09-09T01:02:38;11.00;99.90
10828;DHT22;5467;59.334;13.512;2022-09-09T01:05:11;11.00;99.90
10828;DHT22;5467;59.334;13.512;2022-09-09T01:07:40;10.90;99.90
10828;DHT22;5467;59.334;13.512;2022-09-09T01:10:17;10.90;99.90
10828;DHT22;5467;59.334;13.512;2022-09-09T01:12:52;10.90;99.90
10828;DHT22;5467;59.334;13.512;2022-09-09T01:15:24;10.80;99.90
10828;DHT22;5467;59.334;13.512;2022-09-09T01:18:00;10.90;99.90
10828;DHT22;5467;59.334;13.512;2022-09-09T01:20:34;10.90;99.90
10828;DHT22;5467;59.334;13.512;2022-09-09T01:23:27;10.90;99.90
10828;DHT22;5467;59.334;13.512;2022-09-09T01:26:20;11.00;99.90
10828;DHT22;5467;59.334;13.512;2022-09-09T01:28:50;11.00;99.90
10828;DHT22;5467;59.334;13.512;2022-09-09T01:31:21;11.00;99.90
10828;DHT22;5467;59.334;13.512;2022-09-09T01:33:49;10.90;99.90
10828;DHT22;5467;59.334;13.512;2022-09-09T01:36:25;11.00;99.90
10828;DHT22;5467;59.334;13.512;2022-09-09T01:38:53;11.00;99.90
10828;DHT22;5467;59.334;13.512;2022-09-09T01:41:21;10.90;99.90
10828;DHT22;5467;59.334;13.512;2022-09-09T01:43:49;10.80;99.90
10828;DHT22;5467;59.334;13.512;2022-09-09T01:46:18;10.70;99.90
10828;DHT22;5467;59.334;13.512;2022-09-09T01:48:46;10.60;99.90
10828;DHT22;5467;59.334;13.512;2022-09-09T01:51:13;10.60;99.90
10828;DHT22;5467;59.334;13.512;2022-09-09T01:53:41;10.70;99.90
10828;DHT22;5467;59.334;13.512;2022-09-09T01:56:19;10.80;99.90
10828;DHT22;5467;59.334;13.512;2022-09-09T01:59:08;10.90;99.90
10828;DHT22;5467;59.334;13.512;2022-09-09T02:01:46;10.90;99.90
10828;DHT22;5467;59.334;13.512;2022-09-09T02:04:28;10.90;99.90
10828;DHT22;5467;59.334;13.512;2022-09-09T02:06:58;10.90;99.90
10828;DHT22;5467;59.334;13.512;2022-09-09T02:09:29;10.90;99.90
10828;DHT22;5467;59.334;13.512;2022-09-09T02:12:00;10.90;99.90
10828;DHT22;5467;59.334;13.512;2022-09-09T02:14:35;11.00;99.90
10828;DHT22;5467;59.334;13.512;2022-09-09T02:17:08;10.90;99.90
10828;DHT22;5467;59.334;13.512;2022-09-09T02:19:38;10.80;99.90
10828;DHT22;5467;59.334;13.512;2022-09-09T02:22:05;10.80;99.90
10828;DHT22;5467;59.334;13.512;2022-09-09T02:24:35;10.70;99.90
10828;DHT22;5467;59.334;13.512;2022-09-09T02:27:04;10.90;99.90
10828;DHT22;5467;59.334;13.512;2022-09-09T02:29:38;10.90;99.90
10828;DHT22;5467;59.334;13.512;2022-09-09T02:32:08;10.80;99.90
10828;DHT22;5467;59.334;13.512;2022-09-09T02:34:40;10.90;99.90
10828;DHT22;5467;59.334;13.512;2022-09-09T02:37:09;10.80;99.90
10828;DHT22;5467;59.334;13.512;2022-09-09T02:39:37;10.90;99.90
10828;DHT22;5467;59.334;13.512;2022-09-09T02:42:05;10.80;99.90
10828;DHT22;5467;59.334;13.512;2022-09-09T02:44:35;10.80;99.90
10828;DHT22;5467;59.334;13.512;2022-09-09T02:47:17;10.70;99.90
10828;DHT22;5467;59.334;13.512;2022-09-09T02:49:53;10.80;99.90
10828;DHT22;5467;59.334;13.512;2022-09-09T02:52:29;11.00;99.90
10828;DHT22;5467;59.334;13.512;2022-09-09T02:55:04;11.00;99.90
10828;DHT22;5467;59.334;13.512;2022-09-09T02:57:33;11.10;99.90
10828;DHT22;5467;59.334;13.512;2022-09-09T03:00:03;11.10;99.90
10828;DHT22;5467;59.334;13.512;2022-09-09T03:02:30;11.10;99.90
10828;DHT22;5467;59.334;13.512;2022-09-09T03:04:57;11.00;99.90
10828;DHT22;5467;59.334;13.512;2022-09-09T03:07:24;11.10;99.90
10828;DHT22;5467;59.334;13.512;2022-09-09T03:09:52;11.10;99.90
10828;DHT22;5467;59.334;13.512;2022-09-09T03:12:20;11.10;99.90
10828;DHT22;5467;59.334;13.512;2022-09-09T03:14:47;11.10;99.90
10828;DHT22;5467;59.334;13.512;2022-09-09T03:17:15;11.20;99.90
10828;DHT22;5467;59.334;13.512;2022-09-09T03:19:43;11.20;99.90
10828;DHT22;5467;59.334;13.512;2022-09-09T03:22:10;11.20;99.90
10828;DHT22;5467;59.334;13.512;2022-09-09T03:24:38;11.20;99.90
10828;DHT22;5467;59.334;13.512;2022-09-09T03:27:05;11.20;99.90
10828;DHT22;5467;59.334;13.512;2022-09-09T03:29:32;11.10;99.90
10828;DHT22;5467;59.334;13.512;2022-09-09T03:31:59;11.10;99.90
10828;DHT22;5467;59.334;13.512;2022-09-09T03:34:28;11.10;99.90
10828;DHT22;5467;59.334;13.512;2022-09-09T03:36:55;11.10;99.90
10828;DHT22;5467;59.334;13.512;2022-09-09T03:39:22;11.10;99.90
10828;DHT22;5467;59.334;13.512;2022-09-09T03:41:49;11.20;99.90
10828;DHT22;5467;59.334;13.512;2022-09-09T03:44:16;11.30;99.90
10828;DHT22;5467;59.334;13.512;2022-09-09T03:46:42;11.30;99.90
10828;DHT22;5467;59.334;13.512;2022-09-09T03:49:09;11.20;99.90
10828;DHT22;5467;59.334;13.512;2022-09-09T03:51:38;11.10;99.90
10828;DHT22;5467;59.334;13.512;2022-09-09T03:54:06;11.10;99.90
10828;DHT22;5467;59.334;13.512;2022-09-09T03:56:34;11.00;99.90
10828;DHT22;5467;59.334;13.512;2022-09-09T03:59:01;11.00;99.90
10828;DHT22;5467;59.334;13.512;2022-09-09T04:01:28;11.10;99.90
10828;DHT22;5467;59.334;13.512;2022-09-09T04:03:55;11.20;99.90
10828;DHT22;5467;59.334;13.512;2022-09-09T04:06:24;11.10;99.90
10828;DHT22;5467;59.334;13.512;2022-09-09T04:08:52;11.10;99.90
10828;DHT22;5467;59.334;13.512;2022-09-09T04:11:21;11.00;99.90
10828;DHT22;5467;59.334;13.512;2022-09-09T04:13:48;11.10;99.90
10828;DHT22;5467;59.334;13.512;2022-09-09T04:16:15;11.00;99.90
10828;DHT22;5467;59.334;13.512;2022-09-09T04:18:42;11.00;99.90
10828;DHT22;5467;59.334;13.512;2022-09-09T04:21:10;11.00;99.90
10828;DHT22;5467;59.334;13.512;2022-09-09T04:23:38;11.00;99.90
10828;DHT22;5467;59.334;13.512;2022-09-09T04:26:06;11.10;99.90
10828;DHT22;5467;59.334;13.512;2022-09-09T04:28:35;11.10;99.90
10828;DHT22;5467;59.334;13.512;2022-09-09T04:31:06;11.20;99.90
10828;DHT22;5467;59.334;13.512;2022-09-09T04:33:34;11.20;99.90
10828;DHT22;5467;59.334;13.512;2022-09-09T04:36:02;11.10;99.90
10828;DHT22;5467;59.334;13.512;2022-09-09T04:38:29;11.00;99.90
10828;DHT22;5467;59.334;13.512;2022-09-09T04:40:56;11.10;99.90
10828;DHT22;5467;59.334;13.512;2022-09-09T04:43:25;11.30;99.90
10828;DHT22;5467;59.334;13.512;2022-09-09T04:45:56;11.30;99.90
10828;DHT22;5467;59.334;13.512;2022-09-09T04:48:23;11.20;99.90
10828;DHT22;5467;59.334;13.512;2022-09-09T04:50:55;11.30;99.90
10828;DHT22;5467;59.334;13.512;2022-09-09T04:53:23;11.20;99.90
10828;DHT22;5467;59.334;13.512;2022-09-09T04:55:50;11.30;99.90
10828;DHT22;5467;59.334;13.512;2022-09-09T04:58:18;11.30;99.90
10828;DHT22;5467;59.334;13.512;2022-09-09T05:00:48;11.30;99.90
10828;DHT22;5467;59.334;13.512;2022-09-09T05:03:16;11.40;99.90
10828;DHT22;5467;59.334;13.512;2022-09-09T05:05:43;11.50;99.90
10828;DHT22;5467;59.334;13.512;2022-09-09T05:08:10;11.50;99.90
10828;DHT22;5467;59.334;13.512;2022-09-09T05:10:38;11.50;99.90
10828;DHT22;5467;59.334;13.512;2022-09-09T05:13:07;11.50;99.90
10828;DHT22;5467;59.334;13.512;2022-09-09T05:15:34;11.50;99.90
10828;DHT22;5467;59.334;13.512;2022-09-09T05:18:03;11.40;99.90
10828;DHT22;5467;59.334;13.512;2022-09-09T05:20:30;11.50;99.90
10828;DHT22;5467;59.334;13.512;2022-09-09T05:22:57;11.60;99.90
10828;DHT22;5467;59.334;13.512;2022-09-09T05:25:24;11.50;99.90
10828;DHT22;5467;59.334;13.512;2022-09-09T05:27:52;11.60;99.90
10828;DHT22;5467;59.334;13.512;2022-09-09T05:30:20;11.60;99.90
10828;DHT22;5467;59.334;13.512;2022-09-09T05:32:47;11.60;99.90
10828;DHT22;5467;59.334;13.512;2022-09-09T05:35:16;11.50;99.90
10828;DHT22;5467;59.334;13.512;2022-09-09T05:37:44;11.40;99.90
10828;DHT22;5467;59.334;13.512;2022-09-09T05:40:12;11.50;99.90
10828;DHT22;5467;59.334;13.512;2022-09-09T05:42:39;11.60;99.90
10828;DHT22;5467;59.334;13.512;2022-09-09T05:45:06;11.70;99.90
10828;DHT22;5467;59.334;13.512;2022-09-09T05:47:34;11.60;99.90
10828;DHT22;5467;59.334;13.512;2022-09-09T05:50:03;11.60;99.90
10828;DHT22;5467;59.334;13.512;2022-09-09T05:52:31;11.60;99.90
10828;DHT22;5467;59.334;13.512;2022-09-09T05:54:58;11.70;99.90
10828;DHT22;5467;59.334;13.512;2022-09-09T05:57:25;11.80;99.90
10828;DHT22;5467;59.334;13.512;2022-09-09T05:59:52;11.90;99.90
10828;DHT22;5467;59.334;13.512;2022-09-09T06:02:20;12.00;99.90
10828;DHT22;5467;59.334;13.512;2022-09-09T06:04:47;12.00;99.90
10828;DHT22;5467;59.334;13.512;2022-09-09T06:07:14;12.00;99.90
10828;DHT22;5467;59.334;13.512;2022-09-09T06:09:42;11.90;99.90
10828;DHT22;5467;59.334;13.512;2022-09-09T06:12:09;11.90;99.90
10828;DHT22;5467;59.334;13.512;2022-09-09T06:14:36;12.00;99.90
10828;DHT22;5467;59.334;13.512;2022-09-09T06:17:03;12.00;99.90
10828;DHT22;5467;59.334;13.512;2022-09-09T06:19:30;12.20;99.90
10828;DHT22;5467;59.334;13.512;2022-09-09T06:21:57;12.30;99.90
10828;DHT22;5467;59.334;13.512;2022-09-09T06:24:25;12.40;99.90
10828;DHT22;5467;59.334;13.512;2022-09-09T06:26:53;12.50;99.90
10828;DHT22;5467;59.334;13.512;2022-09-09T06:29:20;12.40;99.90
10828;DHT22;5467;59.334;13.512;2022-09-09T06:31:47;12.50;99.90
10828;DHT22;5467;59.334;13.512;2022-09-09T06:34:14;12.50;99.90
10828;DHT22;5467;59.334;13.512;2022-09-09T06:36:41;12.50;99.90
10828;DHT22;5467;59.334;13.512;2022-09-09T06:39:08;12.40;99.90
10828;DHT22;5467;59.334;13.512;2022-09-09T06:41:36;12.20;99.90
10828;DHT22;5467;59.334;13.512;2022-09-09T06:44:06;12.10;99.90
10828;DHT22;5467;59.334;13.512;2022-09-09T06:46:33;12.10;99.90
10828;DHT22;5467;59.334;13.512;2022-09-09T06:49:01;12.10;99.90
10828;DHT22;5467;59.334;13.512;2022-09-09T06:51:30;12.10;99.90
10828;DHT22;5467;59.334;13.512;2022-09-09T06:53:58;12.20;99.90
10828;DHT22;5467;59.334;13.512;2022-09-09T06:56:27;12.30;99.90
10828;DHT22;5467;59.334;13.512;2022-09-09T06:58:55;12.30;99.90
10828;DHT22;5467;59.334;13.512;2022-09-09T07:01:26;12.30;99.90
10828;DHT22;5467;59.334;13.512;2022-09-09T07:03:56;12.40;99.90
10828;DHT22;5467;59.334;13.512;2022-09-09T07:06:26;12.30;99.90
10828;DHT22;5467;59.334;13.512;2022-09-09T07:08:54;12.40;99.90
10828;DHT22;5467;59.334;13.512;2022-09-09T07:11:22;12.40;99.90
10828;DHT22;5467;59.334;13.512;2022-09-09T07:13:49;12.60;99.90
10828;DHT22;5467;59.334;13.512;2022-09-09T07:16:18;12.60;99.90
10828;DHT22;5467;59.334;13.512;2022-09-09T07:18:47;12.60;99.90
10828;DHT22;5467;59.334;13.512;2022-09-09T07:21:16;12.60;99.90
10828;DHT22;5467;59.334;13.512;2022-09-09T07:23:44;12.60;99.90
10828;DHT22;5467;59.334;13.512;2022-09-09T07:26:13;12.60;99.90
10828;DHT22;5467;59.334;13.512;2022-09-09T07:28:41;12.80;99.90
10828;DHT22;5467;59.334;13.512;2022-09-09T07:31:14;12.80;99.90
10828;DHT22;5467;59.334;13.512;2022-09-09T07:33:43;12.80;99.90
10828;DHT22;5467;59.334;13.512;2022-09-09T07:36:13;13.00;99.90
10828;DHT22;5467;59.334;13.512;2022-09-09T07:38:41;13.00;99.90
10828;DHT22;5467;59.334;13.512;2022-09-09T07:41:10;13.10;99.90
10828;DHT22;5467;59.334;13.512;2022-09-09T07:43:38;13.20;99.90
10828;DHT22;5467;59.334;13.512;2022-09-09T07:46:06;13.40;99.90
10828;DHT22;5467;59.334;13.512;2022-09-09T07:48:33;13.50;99.90
10828;DHT22;5467;59.334;13.512;2022-09-09T07:51:08;13.70;99.90
10828;DHT22;5467;59.334;13.512;2022-09-09T07:53:38;13.50;99.90
10828;DHT22;5467;59.334;13.512;2022-09-09T07:56:07;13.60;99.90
10828;DHT22;5467;59.334;13.512;2022-09-09T07:58:35;13.80;99.90
10828;DHT22;5467;59.334;13.512;2022-09-09T08:01:07;13.90;99.90
10828;DHT22;5467;59.334;13.512;2022-09-09T08:03:34;14.00;99.90
10828;DHT22;5467;59.334;13.512;2022-09-09T08:06:02;14.10;99.90
10828;DHT22;5467;59.334;13.512;2022-09-09T08:08:29;14.10;99.90
10828;DHT22;5467;59.334;13.512;2022-09-09T08:11:04;14.00;99.90
10828;DHT22;5467;59.334;13.512;2022-09-09T08:13:33;13.90;99.90
10828;DHT22;5467;59.334;13.512;2022-09-09T08:16:07;13.90;99.90
10828;DHT22;5467;59.334;13.512;2022-09-09T08:18:35;14.00;99.90
10828;DHT22;5467;59.334;13.512;2022-09-09T08:21:08;14.00;99.90
10828;DHT22;5467;59.334;13.512;2022-09-09T08:23:37;13.90;99.90
10828;DHT22;5467;59.334;13.512;2022-09-09T08:26:10;13.90;99.90
10828;DHT22;5467;59.334;13.512;2022-09-09T08:28:37;13.90;99.90
10828;DHT22;5467;59.334;13.512;2022-09-09T08:31:09;14.00;99.90
10828;DHT22;5467;59.334;13.512;2022-09-09T08:33:37;14.20;99.90
10828;DHT22;5467;59.334;13.512;2022-09-09T08:36:05;14.10;99.90
10828;DHT22;5467;59.334;13.512;2022-09-09T08:38:34;14.10;99.90
10828;DHT22;5467;59.334;13.512;2022-09-09T08:41:34;14.20;99.90
10828;DHT22;5467;59.334;13.512;2022-09-09T08:44:07;14.20;99.90
10828;DHT22;5467;59.334;13.512;2022-09-09T08:46:42;14.40;99.90
10828;DHT22;5467;59.334;13.512;2022-09-09T08:49:19;14.70;99.90
10828;DHT22;5467;59.334;13.512;2022-09-09T08:51:53;14.90;99.90
10828;DHT22;5467;59.334;13.512;2022-09-09T08:54:21;14.70;99.90
10828;DHT22;5467;59.334;13.512;2022-09-09T08:56:50;14.70;99.90
10828;DHT22;5467;59.334;13.512;2022-09-09T08:59:18;14.80;99.90
10828;DHT22;5467;59.334;13.512;2022-09-09T09:01:56;15.40;99.90
10828;DHT22;5467;59.334;13.512;2022-09-09T09:04:49;15.70;99.90
10828;DHT22;5467;59.334;13.512;2022-09-09T09:07:29;15.80;99.90
10828;DHT22;5467;59.334;13.512;2022-09-09T09:10:02;16.00;99.90
10828;DHT22;5467;59.334;13.512;2022-09-09T09:12:37;16.20;99.90
10828;DHT22;5467;59.334;13.512;2022-09-09T09:15:11;16.10;99.90
10828;DHT22;5467;59.334;13.512;2022-09-09T09:17:42;16.00;99.90
10828;DHT22;5467;59.334;13.512;2022-09-09T09:20:12;16.10;99.90
10828;DHT22;5467;59.334;13.512;2022-09-09T09:22:47;16.00;99.90
10828;DHT22;5467;59.334;13.512;2022-09-09T09:25:18;15.70;99.90
10828;DHT22;5467;59.334;13.512;2022-09-09T09:28:02;15.90;99.90
10828;DHT22;5467;59.334;13.512;2022-09-09T09:30:35;15.80;99.90
10828;DHT22;5467;59.334;13.512;2022-09-09T09:33:08;15.80;99.90
10828;DHT22;5467;59.334;13.512;2022-09-09T09:35:38;15.70;99.90
10828;DHT22;5467;59.334;13.512;2022-09-09T09:38:15;16.00;99.90
10828;DHT22;5467;59.334;13.512;2022-09-09T09:40:49;16.10;99.90
10828;DHT22;5467;59.334;13.512;2022-09-09T09:43:22;15.80;99.90
10828;DHT22;5467;59.334;13.512;2022-09-09T09:45:50;15.80;99.90
10828;DHT22;5467;59.334;13.512;2022-09-09T09:48:17;15.80;99.90
10828;DHT22;5467;59.334;13.512;2022-09-09T09:50:48;16.10;99.90
10828;DHT22;5467;59.334;13.512;2022-09-09T09:53:22;16.10;99.90
10828;DHT22;5467;59.334;13.512;2022-09-09T09:55:55;15.90;99.90
10828;DHT22;5467;59.334;13.512;2022-09-09T09:58:25;16.10;99.90
10828;DHT22;5467;59.334;13.512;2022-09-09T10:00:54;16.10;99.90
10828;DHT22;5467;59.334;13.512;2022-09-09T10:03:26;16.10;99.90
10828;DHT22;5467;59.334;13.512;2022-09-09T10:05:53;16.10;99.90
10828;DHT22;5467;59.334;13.512;2022-09-09T10:08:22;16.10;99.90
10828;DHT22;5467;59.334;13.512;2022-09-09T10:11:23;16.00;99.90
10828;DHT22;5467;59.334;13.512;2022-09-09T10:14:02;16.30;99.90
10828;DHT22;5467;59.334;13.512;2022-09-09T10:16:41;16.70;99.90
10828;DHT22;5467;59.334;13.512;2022-09-09T10:19:24;16.60;99.90
10828;DHT22;5467;59.334;13.512;2022-09-09T10:25:28;16.00;99.90
10828;DHT22;5467;59.334;13.512;2022-09-09T10:28:16;15.80;99.90
10828;DHT22;5467;59.334;13.512;2022-09-09T10:30:56;16.20;99.90
10828;DHT22;5467;59.334;13.512;2022-09-09T10:33:35;16.20;99.90
10828;DHT22;5467;59.334;13.512;2022-09-09T10:36:11;16.10;99.90
10828;DHT22;5467;59.334;13.512;2022-09-09T10:38:41;16.30;99.90
10828;DHT22;5467;59.334;13.512;2022-09-09T10:41:33;16.40;99.90
10828;DHT22;5467;59.334;13.512;2022-09-09T10:44:15;16.30;99.90
10828;DHT22;5467;59.334;13.512;2022-09-09T10:46:57;16.30;99.90
10828;DHT22;5467;59.334;13.512;2022-09-09T10:49:41;16.50;99.90
10828;DHT22;5467;59.334;13.512;2022-09-09T10:52:17;16.70;99.90
10828;DHT22;5467;59.334;13.512;2022-09-09T10:54:55;16.90;99.90
10828;DHT22;5467;59.334;13.512;2022-09-09T10:57:28;16.50;99.90
10828;DHT22;5467;59.334;13.512;2022-09-09T11:00:00;16.40;99.90
10828;DHT22;5467;59.334;13.512;2022-09-09T11:02:33;16.70;99.90
10828;DHT22;5467;59.334;13.512;2022-09-09T11:05:02;16.80;99.90
10828;DHT22;5467;59.334;13.512;2022-09-09T11:07:35;16.80;99.90
10828;DHT22;5467;59.334;13.512;2022-09-09T11:10:11;17.00;99.90
10828;DHT22;5467;59.334;13.512;2022-09-09T11:12:39;17.00;99.90
10828;DHT22;5467;59.334;13.512;2022-09-09T11:15:17;16.90;99.90
10828;DHT22;5467;59.334;13.512;2022-09-09T11:17:49;16.60;99.90
10828;DHT22;5467;59.334;13.512;2022-09-09T11:20:17;16.60;99.90
10828;DHT22;5467;59.334;13.512;2022-09-09T11:22:48;16.70;99.90
10828;DHT22;5467;59.334;13.512;2022-09-09T11:25:18;17.10;99.90
10828;DHT22;5467;59.334;13.512;2022-09-09T11:28:00;16.80;99.90
10828;DHT22;5467;59.334;13.512;2022-09-09T11:30:37;16.60;99.90
10828;DHT22;5467;59.334;13.512;2022-09-09T11:33:36;16.70;99.90
10828;DHT22;5467;59.334;13.512;2022-09-09T11:36:29;17.00;99.90
10828;DHT22;5467;59.334;13.512;2022-09-09T11:39:22;17.20;99.90
10828;DHT22;5467;59.334;13.512;2022-09-09T11:42:05;16.70;99.90
10828;DHT22;5467;59.334;13.512;2022-09-09T11:44:33;16.50;99.90
10828;DHT22;5467;59.334;13.512;2022-09-09T11:47:00;16.70;99.90
10828;DHT22;5467;59.334;13.512;2022-09-09T11:49:40;16.90;99.90
10828;DHT22;5467;59.334;13.512;2022-09-09T11:52:11;17.10;99.90
10828;DHT22;5467;59.334;13.512;2022-09-09T11:54:46;17.00;99.90
10828;DHT22;5467;59.334;13.512;2022-09-09T11:57:25;17.40;99.90
10828;DHT22;5467;59.334;13.512;2022-09-09T11:59:54;17.40;99.90
10828;DHT22;5467;59.334;13.512;2022-09-09T12:02:24;17.40;99.90
10828;DHT22;5467;59.334;13.512;2022-09-09T12:04:59;17.40;99.90
10828;DHT22;5467;59.334;13.512;2022-09-09T12:07:36;17.20;99.90
10828;DHT22;5467;59.334;13.512;2022-09-09T12:10:20;17.30;99.90
10828;DHT22;5467;59.334;13.512;2022-09-09T12:12:50;17.50;99.90
10828;DHT22;5467;59.334;13.512;2022-09-09T12:15:20;17.30;99.90
10828;DHT22;5467;59.334;13.512;2022-09-09T12:17:49;17.20;99.90
10828;DHT22;5467;59.334;13.512;2022-09-09T12:20:20;17.10;99.90
10828;DHT22;5467;59.334;13.512;2022-09-09T12:23:07;17.20;99.90
10828;DHT22;5467;59.334;13.512;2022-09-09T12:28:42;17.20;99.90
10828;DHT22;5467;59.334;13.512;2022-09-09T12:31:16;17.00;99.90
10828;DHT22;5467;59.334;13.512;2022-09-09T12:33:45;17.10;99.90
10828;DHT22;5467;59.334;13.512;2022-09-09T12:36:17;17.00;99.90
10828;DHT22;5467;59.334;13.512;2022-09-09T12:38:45;17.10;99.90
10828;DHT22;5467;59.334;13.512;2022-09-09T12:41:20;17.40;99.90
10828;DHT22;5467;59.334;13.512;2022-09-09T12:43:48;17.30;99.90
10828;DHT22;5467;59.334;13.512;2022-09-09T12:46:23;17.20;99.90
10828;DHT22;5467;59.334;13.512;2022-09-09T12:48:53;17.30;99.90
10828;DHT22;5467;59.334;13.512;2022-09-09T12:51:27;17.40;99.90
10828;DHT22;5467;59.334;13.512;2022-09-09T12:53:55;17.50;99.90
10828;DHT22;5467;59.334;13.512;2022-09-09T12:56:24;17.40;99.90
10828;DHT22;5467;59.334;13.512;2022-09-09T12:58:55;17.20;99.90
10828;DHT22;5467;59.334;13.512;2022-09-09T13:01:25;17.40;99.90
10828;DHT22;5467;59.334;13.512;2022-09-09T13:03:54;17.50;99.90
10828;DHT22;5467;59.334;13.512;2022-09-09T13:06:24;17.40;99.90
10828;DHT22;5467;59.334;13.512;2022-09-09T13:08:53;17.40;99.90
10828;DHT22;5467;59.334;13.512;2022-09-09T13:11:23;17.50;99.90
10828;DHT22;5467;59.334;13.512;2022-09-09T13:13:52;17.50;99.90
10828;DHT22;5467;59.334;13.512;2022-09-09T13:16:22;17.30;99.90
10828;DHT22;5467;59.334;13.512;2022-09-09T13:18:52;17.30;99.90
10828;DHT22;5467;59.334;13.512;2022-09-09T13:21:32;17.30;99.90
10828;DHT22;5467;59.334;13.512;2022-09-09T13:24:00;17.60;99.90
10828;DHT22;5467;59.334;13.512;2022-09-09T13:26:29;17.70;99.90
10828;DHT22;5467;59.334;13.512;2022-09-09T13:29:13;17.50;99.90
10828;DHT22;5467;59.334;13.512;2022-09-09T13:31:42;17.30;99.90
10828;DHT22;5467;59.334;13.512;2022-09-09T13:34:12;17.30;99.90
10828;DHT22;5467;59.334;13.512;2022-09-09T13:36:46;17.50;99.90
10828;DHT22;5467;59.334;13.512;2022-09-09T13:39:16;17.60;99.90
10828;DHT22;5467;59.334;13.512;2022-09-09T13:41:45;17.50;99.90
10828;DHT22;5467;59.334;13.512;2022-09-09T13:44:20;17.50;99.90
10828;DHT22;5467;59.334;13.512;2022-09-09T13:47:00;17.50;99.90
10828;DHT22;5467;59.334;13.512;2022-09-09T13:49:29;17.30;99.90
10828;DHT22;5467;59.334;13.512;2022-09-09T13:52:09;17.50;99.90
10828;DHT22;5467;59.334;13.512;2022-09-09T13:54:37;17.30;99.90
10828;DHT22;5467;59.334;13.512;2022-09-09T13:57:04;17.20;99.90
10828;DHT22;5467;59.334;13.512;2022-09-09T13:59:31;17.00;99.90
10828;DHT22;5467;59.334;13.512;2022-09-09T14:01:58;16.80;99.90
10828;DHT22;5467;59.334;13.512;2022-09-09T14:04:27;16.80;99.90
10828;DHT22;5467;59.334;13.512;2022-09-09T14:06:55;17.00;99.90
10828;DHT22;5467;59.334;13.512;2022-09-09T14:09:24;17.00;99.90
10828;DHT22;5467;59.334;13.512;2022-09-09T14:11:50;17.10;99.90
10828;DHT22;5467;59.334;13.512;2022-09-09T14:14:17;17.10;99.90
10828;DHT22;5467;59.334;13.512;2022-09-09T14:16:44;17.00;99.90
10828;DHT22;5467;59.334;13.512;2022-09-09T14:19:11;17.00;99.90
10828;DHT22;5467;59.334;13.512;2022-09-09T14:21:38;17.10;99.90
10828;DHT22;5467;59.334;13.512;2022-09-09T14:24:05;17.10;99.90
10828;DHT22;5467;59.334;13.512;2022-09-09T14:26:34;17.00;99.90
10828;DHT22;5467;59.334;13.512;2022-09-09T14:29:01;17.10;99.90
10828;DHT22;5467;59.334;13.512;2022-09-09T14:31:28;17.00;99.90
10828;DHT22;5467;59.334;13.512;2022-09-09T14:33:55;16.80;99.90
10828;DHT22;5467;59.334;13.512;2022-09-09T14:36:22;16.70;99.90
10828;DHT22;5467;59.334;13.512;2022-09-09T14:38:50;16.70;99.90
10828;DHT22;5467;59.334;13.512;2022-09-09T14:41:18;16.60;99.90
10828;DHT22;5467;59.334;13.512;2022-09-09T14:43:49;16.40;99.90
10828;DHT22;5467;59.334;13.512;2022-09-09T14:46:18;16.40;99.90
10828;DHT22;5467;59.334;13.512;2022-09-09T14:48:46;16.40;99.90
10828;DHT22;5467;59.334;13.512;2022-09-09T14:51:16;16.40;99.90
10828;DHT22;5467;59.334;13.512;2022-09-09T14:53:44;16.30;99.90
10828;DHT22;5467;59.334;13.512;2022-09-09T14:56:12;16.30;99.90
10828;DHT22;5467;59.334;13.512;2022-09-09T14:58:39;16.20;99.90
10828;DHT22;5467;59.334;13.512;2022-09-09T15:01:09;16.10;99.90
10828;DHT22;5467;59.334;13.512;2022-09-09T15:03:37;16.10;99.90
10828;DHT22;5467;59.334;13.512;2022-09-09T15:06:08;16.10;99.90
10828;DHT22;5467;59.334;13.512;2022-09-09T15:08:35;16.10;99.90
10828;DHT22;5467;59.334;13.512;2022-09-09T15:11:03;16.20;99.90
10828;DHT22;5467;59.334;13.512;2022-09-09T15:13:30;16.30;99.90
10828;DHT22;5467;59.334;13.512;2022-09-09T15:16:03;16.30;99.90
10828;DHT22;5467;59.334;13.512;2022-09-09T15:18:32;16.10;99.90
10828;DHT22;5467;59.334;13.512;2022-09-09T15:21:01;16.00;99.90
10828;DHT22;5467;59.334;13.512;2022-09-09T15:23:31;16.00;99.90
10828;DHT22;5467;59.334;13.512;2022-09-09T15:25:58;15.90;99.90
10828;DHT22;5467;59.334;13.512;2022-09-09T15:28:25;15.90;99.90
10828;DHT22;5467;59.334;13.512;2022-09-09T15:30:55;15.90;99.90
10828;DHT22;5467;59.334;13.512;2022-09-09T15:33:22;15.70;99.90
10828;DHT22;5467;59.334;13.512;2022-09-09T15:35:51;15.70;99.90
10828;DHT22;5467;59.334;13.512;2022-09-09T15:38:18;15.60;99.90
10828;DHT22;5467;59.334;13.512;2022-09-09T15:40:45;15.60;99.90
10828;DHT22;5467;59.334;13.512;2022-09-09T15:43:19;15.70;99.90
10828;DHT22;5467;59.334;13.512;2022-09-09T15:45:49;15.70;99.90
10828;DHT22;5467;59.334;13.512;2022-09-09T15:48:19;15.70;99.90
10828;DHT22;5467;59.334;13.512;2022-09-09T15:50:47;15.70;99.90
10828;DHT22;5467;59.334;13.512;2022-09-09T15:53:15;15.70;99.90
10828;DHT22;5467;59.334;13.512;2022-09-09T15:55:42;15.60;99.90
10828;DHT22;5467;59.334;13.512;2022-09-09T15:58:10;15.50;99.90
10828;DHT22;5467;59.334;13.512;2022-09-09T16:00:37;15.60;99.90